createdAt,value
2018-07-28T00:00:34.586Z,9.13
2018-07-28T00:03:03.326Z,9.00
2018-07-28T00:05:32.146Z,8.93
2018-07-28T00:08:00.930Z,9.17
2018-07-28T00:10:29.791Z,11.33
2018-07-28T00:12:58.579Z,10.67
2018-07-28T00:15:27.306Z,9.50
2018-07-28T00:17:56.018Z,9.93
2018-07-28T00:20:24.692Z,9.30
2018-07-28T00:22:53.373Z,9.90
2018-07-28T00:25:22.255Z,9.90
2018-07-28T00:27:50.904Z,8.90
2018-07-28T00:30:19.598Z,10.60
2018-07-28T00:32:48.786Z,9.37
2018-07-28T00:35:17.458Z,9.00
2018-07-28T00:37:46.133Z,9.70
2018-07-28T00:40:14.822Z,9.53
2018-07-28T00:42:43.554Z,8.27
2018-07-28T00:45:12.317Z,8.83
2018-07-28T00:47:40.995Z,8.90
2018-07-28T00:50:10.381Z,9.30
2018-07-28T00:52:39.235Z,9.50
2018-07-28T00:55:08.220Z,9.47
2018-07-28T00:57:37.149Z,11.60
2018-07-28T01:00:08.108Z,13.23
2018-07-28T01:02:37.102Z,12.37
2018-07-28T01:05:06.502Z,11.63
2018-07-28T01:07:35.478Z,11.57
2018-07-28T01:10:05.251Z,10.90
2018-07-28T01:12:34.531Z,10.97
2018-07-28T01:15:03.587Z,11.03
2018-07-28T01:17:32.831Z,10.73
2018-07-28T01:20:02.147Z,11.00
2018-07-28T01:22:31.146Z,10.53
2018-07-28T01:24:59.940Z,10.20
2018-07-28T01:27:29.142Z,10.33
2018-07-28T01:29:57.881Z,9.70
2018-07-28T01:32:26.493Z,10.47
2018-07-28T01:34:55.178Z,9.97
2018-07-28T01:37:23.919Z,10.30
2018-07-28T01:39:52.601Z,10.17
2018-07-28T01:42:21.245Z,9.57
2018-07-28T01:44:50.401Z,9.67
2018-07-28T01:47:19.306Z,9.73
2018-07-28T01:49:48.012Z,10.77
2018-07-28T01:52:16.755Z,9.97
2018-07-28T01:54:45.534Z,10.33
2018-07-28T01:57:14.567Z,9.87
2018-07-28T01:59:43.379Z,9.40
2018-07-28T02:02:12.149Z,10.20
2018-07-28T02:04:41.167Z,11.20
2018-07-28T02:07:10.175Z,11.50
2018-07-28T02:09:38.990Z,11.37
2018-07-28T02:12:08.443Z,11.37
2018-07-28T02:14:37.482Z,10.63
2018-07-28T02:17:06.255Z,11.53
2018-07-28T02:19:35.307Z,10.20
2018-07-28T02:22:04.102Z,10.30
2018-07-28T02:24:32.943Z,11.73
2018-07-28T02:27:01.958Z,11.17
2018-07-28T02:29:31.067Z,11.73
2018-07-28T02:32:00.053Z,12.43
2018-07-28T02:34:28.870Z,11.97
2018-07-28T02:36:58.634Z,12.83
2018-07-28T02:39:27.589Z,13.97
2018-07-28T02:41:56.523Z,13.07
2018-07-28T02:44:25.165Z,11.90
2018-07-28T02:46:53.802Z,11.23
2018-07-28T02:49:22.575Z,11.77
2018-07-28T02:51:51.392Z,11.80
2018-07-28T02:54:20.195Z,11.03
2018-07-28T02:56:49.060Z,11.47
2018-07-28T02:59:18.979Z,11.17
2018-07-28T03:01:48.218Z,11.73
2018-07-28T03:04:17.057Z,11.00
2018-07-28T03:06:46.987Z,12.87
2018-07-28T03:09:15.809Z,11.63
2018-07-28T03:11:44.637Z,11.30
2018-07-28T03:14:13.644Z,13.73
2018-07-28T03:16:42.391Z,13.00
2018-07-28T03:19:11.213Z,14.77
2018-07-28T03:21:40.595Z,15.37
2018-07-28T03:24:09.399Z,14.67
2018-07-28T03:26:38.168Z,14.93
2018-07-28T03:29:07.091Z,14.43
2018-07-28T03:31:36.755Z,14.23
2018-07-28T03:34:05.640Z,14.13
2018-07-28T03:36:34.438Z,13.67
2018-07-28T03:39:03.419Z,14.27
2018-07-28T03:41:32.438Z,14.23
2018-07-28T03:44:01.426Z,13.07
2018-07-28T03:46:30.166Z,13.87
2018-07-28T03:48:59.124Z,14.53
2018-07-28T03:51:28.556Z,12.23
2018-07-28T03:53:57.582Z,13.47
2018-07-28T03:56:26.642Z,13.07
2018-07-28T03:58:56.185Z,13.07
2018-07-28T04:01:24.901Z,13.80
2018-07-28T04:03:54.112Z,13.23
2018-07-28T04:06:22.923Z,13.30
2018-07-28T04:08:52.297Z,13.07
2018-07-28T04:11:21.750Z,13.57
2018-07-28T04:13:51.464Z,13.10
2018-07-28T04:16:20.569Z,13.97
2018-07-28T04:18:49.372Z,13.27
2018-07-28T04:21:18.380Z,12.40
2018-07-28T04:23:47.335Z,13.63
2018-07-28T04:26:16.135Z,12.37
2018-07-28T04:28:44.884Z,15.17
2018-07-28T04:31:13.619Z,13.30
2018-07-28T04:33:42.334Z,13.93
2018-07-28T04:36:11.270Z,13.57
2018-07-28T04:38:40.019Z,13.70
2018-07-28T04:41:09.010Z,14.10
2018-07-28T04:43:38.160Z,13.90
2018-07-28T04:46:06.959Z,12.93
2018-07-28T04:48:35.924Z,13.90
2018-07-28T04:51:05.346Z,13.40
2018-07-28T04:53:36.695Z,13.70
2018-07-28T04:56:06.735Z,13.70
2018-07-28T04:58:36.031Z,14.00
2018-07-28T05:01:05.872Z,14.33
2018-07-28T05:03:35.440Z,13.20
2018-07-28T05:06:04.911Z,13.57
2018-07-28T05:08:33.914Z,13.13
2018-07-28T05:11:03.259Z,13.40
2018-07-28T05:13:33.425Z,13.90
2018-07-28T05:16:03.443Z,13.23
2018-07-28T05:18:32.699Z,13.00
2018-07-28T05:21:02.436Z,12.67
2018-07-28T05:23:31.679Z,13.50
2018-07-28T05:26:01.324Z,12.87
2018-07-28T05:28:31.007Z,15.40
2018-07-28T05:30:59.994Z,14.10
2018-07-28T05:33:28.790Z,13.87
2018-07-28T05:35:58.431Z,13.70
2018-07-28T05:38:27.519Z,13.77
2018-07-28T05:40:56.207Z,14.27
2018-07-28T05:43:24.842Z,13.70
2018-07-28T05:45:53.563Z,13.60
2018-07-28T05:48:22.562Z,14.33
2018-07-28T05:50:51.623Z,14.80
2018-07-28T05:53:20.515Z,13.60
2018-07-28T05:55:49.474Z,16.23
2018-07-28T05:58:18.463Z,13.77
2018-07-28T06:00:47.363Z,14.97
2018-07-28T06:03:16.667Z,13.93
2018-07-28T06:05:45.495Z,13.73
2018-07-28T06:08:14.276Z,13.17
2018-07-28T06:10:43.023Z,13.27
2018-07-28T06:13:11.736Z,14.40
2018-07-28T06:15:40.455Z,14.50
2018-07-28T06:18:09.618Z,13.77
2018-07-28T06:20:39.478Z,14.53
2018-07-28T06:23:08.126Z,15.00
2018-07-28T06:25:36.881Z,13.03
2018-07-28T06:28:05.586Z,13.03
2018-07-28T06:30:34.477Z,14.00
2018-07-28T06:33:03.106Z,12.80
2018-07-28T06:35:31.779Z,15.53
2018-07-28T06:38:00.670Z,16.70
2018-07-28T06:40:29.352Z,13.75
2018-07-28T06:42:58.027Z,13.45
2018-07-28T06:45:26.898Z,14.73
2018-07-28T06:47:55.855Z,14.05
2018-07-28T06:50:24.523Z,13.93
2018-07-28T06:52:53.132Z,12.13
2018-07-28T06:55:21.798Z,13.22
2018-07-28T06:57:51.247Z,12.40
2018-07-28T07:00:19.910Z,12.43
2018-07-28T07:02:48.626Z,11.70
2018-07-28T07:05:17.365Z,12.63
2018-07-28T07:07:45.981Z,11.90
2018-07-28T07:10:14.940Z,11.33
2018-07-28T07:12:43.888Z,13.00
2018-07-28T07:15:12.536Z,11.88
2018-07-28T07:17:41.176Z,12.68
2018-07-28T07:20:10.158Z,11.78
2018-07-28T07:22:38.799Z,11.60
2018-07-28T07:25:07.792Z,11.88
2018-07-28T07:27:36.451Z,11.22
2018-07-28T07:30:07.148Z,12.60
2018-07-28T07:32:35.852Z,12.30
2018-07-28T07:35:04.575Z,11.38
2018-07-28T07:37:33.202Z,11.60
2018-07-28T07:40:01.847Z,11.20
2018-07-28T07:42:30.472Z,17.35
2018-07-28T07:44:59.391Z,10.70
2018-07-28T07:47:28.377Z,10.93
2018-07-28T07:49:56.991Z,11.15
2018-07-28T07:52:25.712Z,11.25
2018-07-28T07:54:54.683Z,11.57
2018-07-28T07:57:23.321Z,10.80
2018-07-28T07:59:51.971Z,10.98
2018-07-28T08:02:20.633Z,10.85
2018-07-28T08:04:49.281Z,11.57
2018-07-28T08:07:17.899Z,11.50
2018-07-28T08:09:46.760Z,10.88
2018-07-28T08:12:15.473Z,11.50
2018-07-28T08:14:44.385Z,11.75
2018-07-28T08:17:13.376Z,11.50
2018-07-28T08:19:42.038Z,12.03
2018-07-28T08:22:11.495Z,11.38
2018-07-28T08:24:40.713Z,11.50
2018-07-28T08:27:09.464Z,11.40
2018-07-28T08:29:38.395Z,10.53
2018-07-28T08:32:07.146Z,12.58
2018-07-28T08:34:36.359Z,12.03
2018-07-28T08:37:05.068Z,12.15
2018-07-28T08:39:33.987Z,11.30
2018-07-28T08:42:02.706Z,11.28
2018-07-28T08:44:31.592Z,13.25
2018-07-28T08:47:00.482Z,11.78
2018-07-28T08:49:29.416Z,11.38
2018-07-28T08:51:58.046Z,11.28
2018-07-28T08:54:27.018Z,10.85
2018-07-28T08:56:55.995Z,9.98
2018-07-28T08:59:24.854Z,9.63
2018-07-28T09:01:53.796Z,10.38
2018-07-28T09:04:22.858Z,14.55
2018-07-28T09:06:52.308Z,11.12
2018-07-28T09:09:21.255Z,10.23
2018-07-28T09:11:50.441Z,13.60
2018-07-28T09:14:19.099Z,11.22
2018-07-28T09:16:48.501Z,11.30
2018-07-28T09:19:17.539Z,10.03
2018-07-28T09:21:46.921Z,10.53
2018-07-28T09:24:16.566Z,9.95
2018-07-28T09:26:45.806Z,10.28
2018-07-28T09:29:14.608Z,9.65
2018-07-28T09:31:43.392Z,9.73
2018-07-28T09:34:12.445Z,10.93
2018-07-28T09:36:41.383Z,11.48
2018-07-28T09:39:11.786Z,10.78
2018-07-28T09:41:41.062Z,10.25
2018-07-28T09:44:10.023Z,10.98
2018-07-28T09:46:39.209Z,11.93
2018-07-28T09:49:08.172Z,11.83
2018-07-28T09:51:36.895Z,11.93
2018-07-28T09:54:06.318Z,15.15
2018-07-28T09:56:36.072Z,11.30
2018-07-28T09:59:05.006Z,11.33
2018-07-28T10:01:33.922Z,11.12
2018-07-28T10:04:02.923Z,10.75
2018-07-28T10:06:32.180Z,12.70
2018-07-28T10:09:00.939Z,10.60
2018-07-28T10:11:30.226Z,10.30
2018-07-28T10:13:58.872Z,9.80
2018-07-28T10:16:28.732Z,10.18
2018-07-28T10:18:57.363Z,9.78
2018-07-28T10:21:26.426Z,11.35
2018-07-28T10:23:55.159Z,10.60
2018-07-28T10:26:24.059Z,10.50
2018-07-28T10:28:53.357Z,10.90
2018-07-28T10:31:22.632Z,10.18
2018-07-28T10:33:51.553Z,10.95
2018-07-28T10:36:20.278Z,9.95
2018-07-28T10:38:48.934Z,9.45
2018-07-28T10:41:17.685Z,10.68
2018-07-28T10:43:46.878Z,10.90
2018-07-28T10:46:19.448Z,10.70
2018-07-28T10:48:48.875Z,11.55
2018-07-28T10:51:17.770Z,10.10
2018-07-28T10:53:46.595Z,10.00
2018-07-28T10:56:15.807Z,9.88
2018-07-28T10:58:45.150Z,10.20
2018-07-28T11:01:14.091Z,11.20
2018-07-28T11:03:43.962Z,11.70
2018-07-28T11:06:13.186Z,11.05
2018-07-28T11:08:42.142Z,11.53
2018-07-28T11:11:11.025Z,10.15
2018-07-28T11:13:40.240Z,10.63
2018-07-28T11:16:09.338Z,10.98
2018-07-28T11:18:38.556Z,10.38
2018-07-28T11:21:07.604Z,10.50
2018-07-28T11:23:56.422Z,10.58
2018-07-28T11:26:25.559Z,13.22
2018-07-28T11:28:54.693Z,12.13
2018-07-28T11:31:35.092Z,9.38
2018-07-28T11:34:14.998Z,9.60
2018-07-28T11:36:55.422Z,9.40
2018-07-28T11:39:35.245Z,9.58
2018-07-28T11:42:14.948Z,11.43
2018-07-28T11:45:20.840Z,10.48
2018-07-28T11:47:49.606Z,9.58
2018-07-28T11:50:19.182Z,9.30
2018-07-28T11:52:47.830Z,10.88
2018-07-28T11:55:16.483Z,9.65
2018-07-28T11:57:45.071Z,9.90
2018-07-28T12:00:13.792Z,8.85
2018-07-28T12:02:42.750Z,9.25
2018-07-28T12:05:11.404Z,9.40
2018-07-28T12:07:40.269Z,9.68
2018-07-28T12:10:09.996Z,9.43
2018-07-28T12:12:38.967Z,8.55
2018-07-28T12:15:08.158Z,8.40
2018-07-28T12:17:36.810Z,8.13
2018-07-28T12:20:05.683Z,7.08
2018-07-28T12:22:34.333Z,7.90
2018-07-28T12:25:03.008Z,8.13
2018-07-28T12:27:31.748Z,9.03
2018-07-28T12:30:00.803Z,9.83
2018-07-28T12:32:29.473Z,8.33
2018-07-28T12:34:58.218Z,8.28
2018-07-28T12:37:26.964Z,7.78
2018-07-28T12:39:55.626Z,8.38
2018-07-28T12:42:24.274Z,8.83
2018-07-28T12:44:52.982Z,8.43
2018-07-28T12:47:21.902Z,8.35
2018-07-28T12:49:50.581Z,7.85
2018-07-28T12:52:19.257Z,9.48
2018-07-28T12:54:48.477Z,7.85
2018-07-28T12:57:17.374Z,12.45
2018-07-28T12:59:46.690Z,9.05
2018-07-28T13:02:15.359Z,7.50
2018-07-28T13:04:44.001Z,8.13
2018-07-28T13:07:12.624Z,7.10
2018-07-28T13:09:41.243Z,7.53
2018-07-28T13:12:09.948Z,8.90
2018-07-28T13:14:38.909Z,8.55
2018-07-28T13:17:07.846Z,8.33
2018-07-28T13:19:36.545Z,9.88
2018-07-28T13:22:05.228Z,9.70
2018-07-28T13:24:34.304Z,8.98
2018-07-28T13:27:02.998Z,10.68
2018-07-28T13:29:31.647Z,10.93
2018-07-28T13:32:00.282Z,8.60
2018-07-28T13:34:28.902Z,11.68
2018-07-28T13:36:57.598Z,18.92
2018-07-28T13:39:26.624Z,10.85
2018-07-28T13:41:55.274Z,7.58
2018-07-28T13:44:23.894Z,8.63
2018-07-28T13:46:52.594Z,9.05
2018-07-28T13:49:21.225Z,8.05
2018-07-28T13:51:49.881Z,10.08
2018-07-28T13:54:18.508Z,9.80
2018-07-28T13:56:47.140Z,10.53
2018-07-28T13:59:15.943Z,9.98
2018-07-28T14:01:44.586Z,10.90
2018-07-28T14:04:13.181Z,11.25
2018-07-28T14:06:42.095Z,10.18
2018-07-28T14:09:11.315Z,11.10
2018-07-28T14:11:39.978Z,11.00
2018-07-28T14:14:08.618Z,11.20
2018-07-28T14:16:37.270Z,11.40
2018-07-28T14:19:05.924Z,11.22
2018-07-28T14:21:34.615Z,10.38
2018-07-28T14:24:03.252Z,9.53
2018-07-28T14:26:31.997Z,9.70
2018-07-28T14:29:00.591Z,10.90
2018-07-28T14:31:29.495Z,9.83
2018-07-28T14:33:58.145Z,10.32
2018-07-28T14:36:26.856Z,9.78
2018-07-28T14:38:55.503Z,10.85
2018-07-28T14:41:24.412Z,11.10
2018-07-28T14:43:53.036Z,10.28
2018-07-28T14:46:21.719Z,10.05
2018-07-28T14:48:50.386Z,8.83
2018-07-28T14:51:19.015Z,9.88
2018-07-28T14:53:47.958Z,11.20
2018-07-28T14:56:16.599Z,9.00
2018-07-28T14:58:45.219Z,9.60
2018-07-28T15:01:14.133Z,9.45
2018-07-28T15:03:42.803Z,10.23
2018-07-28T15:06:11.548Z,11.05
2018-07-28T15:08:40.230Z,10.80
2018-07-28T15:11:09.155Z,10.82
2018-07-28T15:13:37.762Z,9.80
2018-07-28T15:16:06.447Z,9.90
2018-07-28T15:18:35.091Z,9.30
2018-07-28T15:21:03.779Z,9.98
2018-07-28T15:23:32.405Z,9.40
2018-07-28T15:26:01.071Z,9.50
2018-07-28T15:28:30.425Z,9.40
2018-07-28T15:30:59.129Z,9.28
2018-07-28T15:33:27.762Z,11.83
2018-07-28T15:35:56.393Z,11.28
2018-07-28T15:38:25.055Z,11.53
2018-07-28T15:40:53.691Z,14.98
2018-07-28T15:43:22.305Z,12.03
2018-07-28T15:45:50.955Z,12.53
2018-07-28T15:48:19.607Z,15.23
2018-07-28T15:50:48.533Z,13.60
2018-07-28T15:53:17.152Z,13.08
2018-07-28T15:55:45.859Z,13.03
2018-07-28T15:58:14.545Z,12.00
2018-07-28T16:00:43.432Z,12.95
2018-07-28T16:03:12.067Z,13.68
2018-07-28T16:05:40.727Z,13.13
2018-07-28T16:08:09.346Z,12.73
2018-07-28T16:10:38.026Z,12.80
2018-07-28T16:13:07.175Z,12.43
2018-07-28T16:15:35.862Z,13.40
2018-07-28T16:18:04.682Z,13.90
2018-07-28T16:20:33.303Z,14.15
2018-07-28T16:23:01.977Z,14.38
2018-07-28T16:25:30.622Z,13.38
2018-07-28T16:27:59.614Z,13.80
2018-07-28T16:30:28.302Z,15.03
2018-07-28T16:32:56.970Z,13.72
2018-07-28T16:35:25.670Z,14.90
2018-07-28T16:37:54.342Z,14.75
2018-07-28T16:40:23.053Z,14.35
2018-07-28T16:42:51.926Z,14.38
2018-07-28T16:45:20.538Z,14.90
2018-07-28T16:47:49.206Z,14.03
2018-07-28T16:50:17.890Z,13.90
2018-07-28T16:52:46.551Z,15.40
2018-07-28T16:55:15.805Z,14.65
2018-07-28T16:57:44.427Z,14.47
2018-07-28T17:00:13.126Z,15.08
2018-07-28T17:02:42.091Z,14.47
2018-07-28T17:05:10.739Z,14.85
2018-07-28T17:07:39.374Z,11.45
2018-07-28T17:10:08.454Z,10.97
2018-07-28T17:12:37.089Z,11.60
2018-07-28T17:15:06.506Z,11.80
2018-07-28T17:17:35.442Z,13.53
2018-07-28T17:20:04.470Z,14.10
2018-07-28T17:22:33.181Z,11.20
2018-07-28T17:25:01.859Z,11.20
2018-07-28T17:27:30.472Z,11.77
2018-07-28T17:29:59.214Z,10.23
2018-07-28T17:32:28.246Z,11.33
2018-07-28T17:34:57.595Z,9.57
2018-07-28T17:37:26.501Z,10.97
2018-07-28T17:39:55.291Z,12.43
2018-07-28T17:42:23.984Z,12.63
2018-07-28T17:44:52.727Z,14.60
2018-07-28T17:47:21.446Z,14.20
2018-07-28T17:49:50.106Z,12.17
2018-07-28T17:52:18.933Z,11.23
2018-07-28T17:54:47.620Z,13.20
2018-07-28T17:57:16.548Z,14.10
2018-07-28T17:59:45.578Z,14.97
2018-07-28T18:02:15.187Z,10.13
2018-07-28T18:04:43.828Z,10.73
2018-07-28T18:07:12.523Z,13.50
2018-07-28T18:09:41.294Z,14.03
2018-07-28T18:12:10.666Z,14.23
2018-07-28T18:14:39.635Z,14.53
2018-07-28T18:17:08.905Z,15.17
2018-07-28T18:19:38.278Z,17.73
2018-07-28T18:22:07.102Z,21.17
2018-07-28T18:24:36.060Z,22.00
2018-07-28T18:27:04.778Z,22.13
2018-07-28T18:29:33.643Z,21.80
2018-07-28T18:32:02.775Z,24.00
2018-07-28T18:34:31.910Z,19.30
2018-07-28T18:37:00.555Z,13.77
2018-07-28T18:39:29.399Z,2.27
2018-07-28T18:41:58.330Z,2.23
2018-07-28T18:44:27.326Z,1.97
2018-07-28T18:46:55.978Z,2.83
2018-07-28T18:49:24.869Z,6.53
2018-07-28T18:51:53.886Z,4.93
2018-07-28T18:54:22.777Z,2.27
2018-07-28T18:56:52.055Z,4.43
2018-07-28T18:59:20.963Z,3.67
2018-07-28T19:01:49.623Z,2.13
2018-07-28T19:04:18.575Z,2.17
2018-07-28T19:06:47.473Z,2.10
2018-07-28T19:09:21.246Z,2.00
2018-07-28T19:11:50.456Z,3.10
2018-07-28T19:14:24.555Z,2.30
2018-07-28T19:16:53.581Z,2.40
2018-07-28T19:19:22.489Z,2.50
2018-07-28T19:21:51.591Z,2.53
2018-07-28T19:24:21.370Z,2.03
2018-07-28T19:26:50.351Z,2.70
2018-07-28T19:29:24.238Z,2.07
2018-07-28T19:31:52.882Z,2.50
2018-07-28T19:34:22.346Z,3.00
2018-07-28T19:36:56.725Z,2.00
2018-07-28T19:39:25.643Z,2.10
2018-07-28T19:41:59.701Z,1.87
2018-07-28T19:44:29.262Z,1.90
2018-07-28T19:46:57.984Z,2.17
2018-07-28T19:49:28.398Z,1.83
2018-07-28T19:51:57.327Z,1.90
2018-07-28T19:54:27.068Z,1.93
2018-07-28T19:56:56.505Z,2.17
2018-07-28T19:59:25.374Z,1.83
2018-07-28T20:01:54.424Z,2.20
2018-07-28T20:04:23.317Z,1.23
2018-07-28T20:06:53.436Z,2.37
2018-07-28T20:09:22.780Z,1.40
2018-07-28T20:11:51.829Z,2.33
2018-07-28T20:14:20.879Z,2.50
2018-07-28T20:16:49.839Z,1.97
2018-07-28T20:19:18.654Z,2.03
2018-07-28T20:21:47.840Z,1.50
2018-07-28T20:24:17.330Z,2.00
2018-07-28T20:26:46.876Z,1.90
2018-07-28T20:29:15.919Z,1.80
2018-07-28T20:31:44.831Z,1.80
2018-07-28T20:34:13.704Z,1.90
2018-07-28T20:36:42.640Z,1.83
2018-07-28T20:39:12.498Z,2.47
2018-07-28T20:41:41.286Z,1.80
2018-07-28T20:44:10.128Z,1.33
2018-07-28T20:46:39.178Z,2.50
2018-07-28T20:49:07.863Z,2.10
2018-07-28T20:51:36.718Z,1.77
2018-07-28T20:54:05.386Z,2.57
2018-07-28T20:56:34.710Z,2.00
2018-07-28T20:59:03.910Z,2.43
2018-07-28T21:01:32.573Z,2.57
2018-07-28T21:04:01.787Z,2.03
2018-07-28T21:06:31.083Z,2.10
2018-07-28T21:09:00.762Z,2.37
2018-07-28T21:11:29.646Z,2.30
2018-07-28T21:13:59.215Z,1.60
2018-07-28T21:16:27.936Z,2.07
2018-07-28T21:18:56.963Z,2.97
2018-07-28T21:21:26.059Z,2.13
2018-07-28T21:23:55.019Z,1.83
2018-07-28T21:26:23.990Z,2.43
2018-07-28T21:28:52.798Z,2.13
2018-07-28T21:31:21.735Z,2.47
2018-07-28T21:33:50.382Z,2.67
2018-07-28T21:36:19.090Z,2.53
2018-07-28T21:38:48.127Z,2.70
2018-07-28T21:41:16.930Z,2.00
2018-07-28T21:43:45.954Z,2.47
2018-07-28T21:46:14.737Z,2.50
2018-07-28T21:48:43.470Z,2.10
2018-07-28T21:51:12.182Z,1.83
2018-07-28T21:53:42.253Z,1.77
2018-07-28T21:56:11.206Z,2.70
2018-07-28T21:58:40.003Z,1.87
2018-07-28T22:01:14.789Z,1.97
2018-07-28T22:03:43.589Z,1.73
2018-07-28T22:06:12.590Z,2.13
2018-07-28T22:08:42.043Z,2.57
2018-07-28T22:11:11.395Z,1.40
2018-07-28T22:13:41.771Z,2.00
2018-07-28T22:16:11.643Z,1.80
2018-07-28T22:18:40.518Z,2.10
2018-07-28T22:21:11.245Z,2.23
2018-07-28T22:23:40.175Z,1.97
2018-07-28T22:26:09.133Z,2.07
2018-07-28T22:28:38.469Z,1.90
2018-07-28T22:31:07.974Z,2.10
2018-07-28T22:33:36.957Z,1.27
2018-07-28T22:36:05.912Z,1.80
2018-07-28T22:38:34.843Z,1.87
2018-07-28T22:41:03.562Z,2.13
2018-07-28T22:43:32.243Z,1.70
2018-07-28T22:46:00.893Z,2.07
2018-07-28T22:48:31.198Z,1.47
2018-07-28T22:51:00.718Z,1.80
2018-07-28T22:53:29.450Z,2.10
2018-07-28T22:55:58.442Z,2.23
2018-07-28T22:58:27.416Z,2.00
2018-07-28T23:00:56.481Z,2.20
2018-07-28T23:03:25.399Z,1.70
2018-07-28T23:05:54.468Z,1.90
2018-07-28T23:08:23.207Z,1.90
2018-07-28T23:10:52.082Z,1.93
2018-07-28T23:13:20.798Z,1.87
2018-07-28T23:15:50.239Z,1.60
2018-07-28T23:18:19.219Z,1.73
2018-07-28T23:20:48.374Z,1.37
2018-07-28T23:23:17.554Z,1.57
2018-07-28T23:25:46.734Z,1.80
2018-07-28T23:28:15.642Z,1.87
2018-07-28T23:30:44.856Z,1.73
2018-07-28T23:33:14.082Z,1.87
2018-07-28T23:35:43.004Z,2.47
2018-07-28T23:38:11.963Z,1.67
2018-07-28T23:40:40.916Z,1.53
2018-07-28T23:43:09.911Z,1.77
2018-07-28T23:45:39.211Z,1.70
2018-07-28T23:48:07.876Z,1.57
2018-07-28T23:50:36.997Z,1.83
2018-07-28T23:53:05.703Z,1.50
2018-07-28T23:55:34.498Z,1.77
2018-07-28T23:58:04.012Z,1.93
